Latest Weather Observations for Urandangi

IDQ60801

Issued at 2:08 pm EST Tuesday 26 July 2016 (issued every 30 minutes, with the page automatically refreshed every 10 minutes)

About weather observations | Map of weather stations | Latest weather observations for QLD | Other Formats
Station Details ID: 037058 Name: URANDANGI AERODROME Lat: -21.60 Lon: 138.37 Height: 178.6 m
Data from the previous 72 hours. | See also: Recent months at Urandangi
Date/Time
EST
Temp
°C
App
Temp
°C
Dew
Point
°C
Rel
Hum
%
Delta-T
°C
Wind Press
QNH
hPa
Press
MSL
hPa
Rain since
9am
mm
Dir  Spd
km/h
Gust
km/h
Spd
kts
Gust
kts
26/02:00pm 20.6 15.3 2.0 29 8.6 SSE 19 30 10 16 1019.7 1019.5 0.0
26/01:30pm 20.1 13.8 1.5 29 8.5 SSE 24 33 13 18 1019.9 1019.7 0.0
26/01:00pm 20.3 14.8 1.7 29 8.6 SE 20 28 11 15 1020.4 1020.2 0.0
26/12:30pm 19.9 14.1 2.3 31 8.2 SE 22 30 12 16 1020.6 1020.4 0.0
26/12:00pm 19.7 14.0 2.6 32 8.0 SE 22 33 12 18 1021.0 1020.8 0.0
26/11:30am 19.3 13.9 2.2 32 7.9 SE 20 30 11 16 1021.4 1021.2 0.0
26/11:00am 18.1 11.9 2.0 34 7.3 SE 24 30 13 16 1021.8 1021.6 0.0
26/10:30am 17.4 12.0 2.2 36 6.9 SE 20 30 11 16 1022.0 1021.9 0.0
26/10:00am 17.6 11.8 2.4 36 6.9 SE 22 30 12 16 1022.1 1022.0 0.0
26/09:30am 15.5 9.8 3.0 43 5.7 SE 22 28 12 15 1022.0 1021.9 0.0
26/09:00am 14.6 9.9 3.1 46 5.2 SSE 17 22 9 12 1021.7 1021.5 0.0
26/08:30am 13.9 10.0 3.4 49 4.8 SE 13 19 7 10 1021.1 1020.9 0.0
26/08:00am 13.5 9.2 3.3 50 4.6 SE 15 20 8 11 1020.6 1020.4 0.0
26/07:30am 13.1 8.8 3.2 51 4.4 SSE 15 19 8 10 1020.5 1020.3 0.0
26/07:00am 12.9 9.0 3.3 52 4.3 SE 13 17 7 9 1019.9 1019.7 0.0
26/06:30am 12.8 9.2 3.2 52 4.3 SE 11 15 6 8 1019.9 1019.7 0.0
26/06:00am 12.7 8.7 3.1 52 4.3 SSE 13 15 7 8 1020.0 1019.8 0.0
26/05:30am 12.7 8.7 3.1 52 4.3 SE 13 19 7 10 1019.6 1019.4 0.0
26/05:00am 12.3 9.1 3.0 53 4.1 SE 9 13 5 7 1019.5 1019.3 0.0
26/04:30am 11.9 8.7 2.9 54 4.0 SE 9 11 5 6 1019.5 1019.3 0.0
26/04:00am 11.1 7.8 2.7 56 3.7 SSE 9 11 5 6 1019.5 1019.3 0.0
26/03:30am 11.4 7.7 2.4 54 3.9 SSE 11 13 6 7 1019.5 1019.3 0.0
26/03:00am 11.7 8.0 2.2 52 4.1 SSE 11 15 6 8 1019.4 1019.2 0.0
26/02:30am 11.1 7.4 2.4 55 3.8 SSE 11 13 6 7 1019.7 1019.5 0.0
26/02:00am 10.6 6.9 2.4 57 3.5 SSE 11 13 6 7 1019.9 1019.7 0.0
26/01:30am 9.9 6.6 2.3 59 3.3 SSE 9 11 5 6 1020.4 1020.2 0.0
26/01:00am 10.1 7.1 2.2 58 3.4 SE 7 9 4 5 1020.3 1020.1 0.0
26/12:30am 10.4 7.4 2.0 56 3.6 SSE 7 9 4 5 1020.4 1020.2 0.0
26/12:00am 10.9 7.9 2.0 54 3.8 SSE 7 9 4 5 1020.4 1020.2 0.0
 
Date/Time
EST
Temp
°C
App
Temp
°C
Dew
Point
°C
Rel
Hum
%
Delta-T
°C
Wind Press
QNH
hPa
Press
MSL
hPa
Rain since
9am
mm
Dir  Spd
km/h
Gust
km/h
Spd
kts
Gust
kts
25/11:30pm 11.4 8.6 2.2 53 4.0 SSE 6 9 3 5 1020.5 1020.3 0.0
25/11:00pm 11.9 9.2 2.4 52 4.1 SE 6 7 3 4 1020.5 1020.3 0.0
25/10:30pm 12.0 9.3 2.5 52 4.2 SE 6 6 3 3 1020.5 1020.3 0.0
25/10:00pm 12.2 8.8 2.1 50 4.4 SSE 9 9 5 5 1020.5 1020.3 0.0
25/09:30pm 12.7 9.7 2.0 48 4.7 SE 7 9 4 5 1020.6 1020.4 0.0
25/09:00pm 12.9 9.5 1.6 46 4.9 ESE 9 9 5 5 1020.3 1020.1 0.0
25/08:30pm 13.8 10.7 1.5 43 5.4 SE 7 9 4 5 1020.3 1020.1 0.0
25/08:00pm 14.5 11.0 1.1 40 5.8 SSE 9 11 5 6 1020.1 1019.9 0.0
25/07:30pm 15.2 11.5 0.2 36 6.4 SE 9 11 5 6 1019.7 1019.5 0.0
25/07:00pm 16.8 13.0 -0.4 31 7.4 SE 9 13 5 7 1019.5 1019.3 0.0
25/06:30pm 18.8 14.3 -0.6 27 8.5 SE 13 19 7 10 1019.2 1019.0 0.0
25/06:00pm 20.4 14.6 -1.4 23 9.5 SE 19 24 10 13 1019.2 1019.0 0.0
25/05:30pm 21.2 15.3 -0.7 23 9.7 SSE 20 28 11 15 1019.0 1018.8 0.0
25/05:00pm 21.6 15.8 -0.4 23 9.8 SSE 20 30 11 16 1019.0 1018.8 0.0
25/04:30pm 21.9 15.7 -0.1 23 9.9 SE 22 32 12 17 1018.9 1018.7 0.0
25/04:00pm 22.2 16.1 0.7 24 9.9 SSE 22 32 12 17 1018.9 1018.7 0.0
25/03:30pm 22.0 15.5 0.5 24 9.8 SE 24 35 13 19 1018.9 1018.7 0.0
25/03:00pm 21.9 15.5 1.0 25 9.6 SE 24 32 13 17 1019.2 1019.0 0.0
25/02:30pm 21.9 15.9 1.0 25 9.7 SSE 22 33 12 18 1019.6 1019.4 0.0
25/02:00pm 21.9 15.5 1.0 25 9.6 SE 24 39 13 21 1020.0 1019.8 0.0
25/01:30pm 21.1 14.4 1.4 27 9.1 SSE 26 33 14 18 1020.5 1020.3 0.0
25/01:00pm 21.0 14.0 1.8 28 8.9 SE 28 37 15 20 1021.0 1020.8 0.0
25/12:30pm 21.1 14.2 2.4 29 8.8 SE 28 37 15 20 1021.4 1021.2 0.0
25/12:00pm 20.4 13.8 2.3 30 8.4 SE 26 37 14 20 1021.8 1021.6 0.0
25/11:30am 19.6 12.7 2.5 32 8.0 SE 28 39 15 21 1022.3 1022.2 0.0
25/11:00am 18.7 11.3 2.1 33 7.6 SE 30 39 16 21 1022.5 1022.4 0.0
25/10:30am 18.4 11.6 3.1 36 7.2 SE 28 37 15 20 1022.5 1022.4 0.0
25/10:00am 17.2 10.0 2.8 38 6.6 SE 30 39 16 21 1022.3 1022.2 0.0
25/09:30am 16.2 8.7 3.3 42 6.0 SE 32 41 17 22 1022.3 1022.2 0.0
25/09:00am 15.3 9.3 3.5 45 5.4 SE 24 35 13 19 1021.8 1021.6 0.0
25/08:30am 13.2 9.1 4.4 55 4.1 SE 15 24 8 13 1021.7 1021.5 0.0
25/08:00am 11.3 8.4 4.5 63 3.1 SE 9 13 5 7 1021.3 1021.1 0.0
25/07:30am 10.2 6.9 4.4 67 2.6 SE 11 15 6 8 1021.1 1020.9 0.0
25/07:00am 9.9 6.9 3.9 66 2.7 SE 9 11 5 6 1020.7 1020.5 0.0
25/06:30am 10.3 6.9 4.0 65 2.8 SE 11 13 6 7 1020.2 1020.0 0.0
25/06:00am 10.8 7.4 3.8 62 3.1 SSE 11 13 6 7 1020.0 1019.8 0.0
25/05:30am 11.0 7.9 3.5 60 3.3 SE 9 11 5 6 1019.9 1019.7 0.0
25/05:00am 12.4 8.5 3.6 55 4.0 SE 13 17 7 9 1019.7 1019.5 0.0
25/04:30am 12.7 8.8 3.6 54 4.1 SE 13 19 7 10 1019.8 1019.6 0.0
25/04:00am 13.2 9.0 3.6 52 4.3 SE 15 20 8 11 1019.9 1019.7 0.0
25/03:30am 13.6 9.7 3.4 50 4.6 SE 13 17 7 9 1020.0 1019.8 0.0
25/03:00am 14.5 9.4 3.3 47 5.1 SSE 19 24 10 13 1019.9 1019.7 0.0
25/02:30am 15.0 9.9 3.2 45 5.4 SSE 19 22 10 12 1020.1 1019.9 0.0
25/02:00am 15.3 10.3 3.5 45 5.4 SSE 19 26 10 14 1020.3 1020.1 0.0
25/01:30am 15.6 10.6 3.4 44 5.6 SSE 19 26 10 14 1020.4 1020.2 0.0
25/01:00am 15.6 11.0 3.7 45 5.5 SSE 17 22 9 12 1020.3 1020.1 0.0
25/12:30am 15.6 11.4 4.0 46 5.4 SSE 15 20 8 11 1020.2 1020.0 0.0
25/12:00am 14.2 10.7 5.3 55 4.2 SSE 13 15 7 8 1020.3 1020.1 0.0
 
Date/Time
EST
Temp
°C
App
Temp
°C
Dew
Point
°C
Rel
Hum
%
Delta-T
°C
Wind Press
QNH
hPa
Press
MSL
hPa
Rain since
9am
mm
Dir  Spd
km/h
Gust
km/h
Spd
kts
Gust
kts
24/11:30pm 12.5 10.1 5.4 62 3.3 SE 7 11 4 6 1020.6 1020.4 0.0
24/11:00pm 13.1 10.4 5.5 60 3.6 SE 9 11 5 6 1020.6 1020.4 0.0
24/10:30pm 12.8 10.0 5.2 60 3.6 ESE 9 9 5 5 1020.5 1020.3 0.0
24/10:00pm 14.7 11.9 5.2 53 4.5 SE 9 11 5 6 1020.3 1020.1 0.0
24/09:30pm 15.0 12.2 5.2 52 4.7 SE 9 9 5 5 1020.1 1019.9 0.0
24/09:00pm 15.6 12.4 5.2 50 5.0 SE 11 11 6 6 1019.6 1019.4 0.0
24/08:30pm 16.1 13.2 4.8 47 5.4 SSE 9 11 5 6 1019.1 1018.9 0.0
24/08:00pm 17.3 14.1 4.9 44 6.0 SSE 11 11 6 6 1018.4 1018.2 0.0
24/07:30pm 18.6 15.2 4.0 38 7.0 SE 11 13 6 7 1017.9 1017.7 0.0
24/07:00pm 20.7 17.0 4.3 34 8.0 SSE 13 17 7 9 1017.3 1017.2 0.0
24/06:30pm 22.2 18.0 3.8 30 9.0 SSE 15 20 8 11 1017.0 1016.8 0.0
24/06:00pm 23.8 18.7 4.2 28 9.7 SSE 20 30 11 16 1016.6 1016.4 0.0
24/05:30pm 24.9 19.1 4.6 27 10.2 SSE 24 33 13 18 1016.3 1016.1 0.0
24/05:00pm 25.9 21.0 4.9 26 10.7 SSE 20 28 11 15 1015.9 1015.7 0.0
24/04:30pm 26.4 21.6 4.8 25 11.0 SSE 19 26 10 14 1015.8 1015.6 0.0
24/04:00pm 26.4 21.6 4.8 25 11.0 SSE 19 26 10 14 1015.6 1015.4 0.0
24/03:30pm 26.6 21.9 5.0 25 11.1 SSE 19 24 10 13 1015.7 1015.5 0.0
24/03:00pm 26.7 22.4 5.1 25 11.1 SSE 17 24 9 13 1015.8 1015.6 0.0
24/02:30pm 26.9 23.3 5.2 25 11.2 SSE 13 24 7 13 1016.1 1015.9 0.0
24/02:00pm 25.7 22.4 4.8 26 10.6 SSE 11 19 6 10 1016.5 1016.3 0.0
24/01:30pm 26.1 23.3 5.1 26 10.8 SSE 9 15 5 8 1016.9 1016.7 0.0
24/01:00pm 25.1 22.2 4.8 27 10.3 SE 9 13 5 7 1017.6 1017.5 0.0
24/12:30pm 24.0 20.7 4.4 28 9.8 SE 11 17 6 9 1018.2 1018.0 0.0
24/12:00pm 23.1 19.3 4.1 29 9.4 ESE 13 19 7 10 1018.7 1018.5 0.0
24/11:30am 22.0 18.1 3.6 30 8.9 ESE 13 19 7 10 1019.1 1018.9 0.0
24/11:00am 21.0 16.3 3.2 31 8.5 SE 17 24 9 13 1019.6 1019.4 0.0
24/10:30am 20.3 15.7 3.5 33 8.0 SE 17 24 9 13 1019.7 1019.5 0.0
24/10:00am 19.0 14.3 3.2 35 7.4 ESE 17 24 9 13 1019.8 1019.6 0.0
24/09:30am 17.5 12.5 3.4 39 6.6 ESE 19 22 10 12 1019.6 1019.4 0.0
24/09:00am 15.6 11.1 4.3 47 5.3 SE 17 22 9 12 1019.6 1019.4 0.0
24/08:30am 13.2 9.6 5.1 58 3.8 SSE 13 17 7 9 1019.4 1019.2 0.0
24/08:00am 9.7 7.8 5.1 73 2.1 SSE 4 6 2 3 1018.8 1018.6 0.0
24/07:30am 8.4 5.9 4.8 78 1.6 SSE 7 9 4 5 1018.6 1018.4 0.0
24/07:00am 7.8 5.2 4.4 79 1.5 SSE 7 7 4 4 1018.0 1017.8 0.0
24/06:30am 8.5 6.1 4.5 76 1.8 ESE 6 6 3 3 1017.4 1017.3 0.0
24/06:00am 9.1 6.9 5.1 76 1.8 ESE 6 6 3 3 1017.0 1016.8 0.0
24/05:30am 8.7 6.3 4.5 75 1.9 SSE 6 7 3 4 1017.2 1017.1 0.0
24/05:00am 9.1 6.8 4.7 74 2.0 SSE 6 6 3 3 1017.2 1017.1 0.0
24/04:30am 9.0 6.7 4.8 75 1.9 SE 6 6 3 3 1017.0 1016.8 0.0
24/04:00am 9.3 7.0 4.7 73 2.1 ESE 6 6 3 3 1016.7 1016.5 0.0
24/03:30am 10.0 8.1 4.8 70 2.4 ESE 4 6 2 3 1016.8 1016.6 0.0
24/03:00am 9.9 7.6 4.9 71 2.3 SE 6 6 3 3 1017.0 1016.8 0.0
24/02:30am 9.9 7.5 4.5 69 2.4 SSE 6 6 3 3 1017.0 1016.8 0.0
24/02:00am 9.8 7.5 4.8 71 2.3 SE 6 6 3 3 1017.0 1016.8 0.0
24/01:30am 10.3 8.0 4.9 69 2.5 SE 6 7 3 4 1017.0 1016.8 0.0
24/01:00am 10.6 8.0 4.3 65 2.8 SE 7 7 4 4 1016.9 1016.7 0.0
24/12:30am 11.0 8.5 4.5 64 3.0 SSE 7 7 4 4 1017.0 1016.8 0.0
24/12:00am 11.7 8.8 4.4 61 3.3 S 9 9 5 5 1017.4 1017.3 0.0
 
Date/Time
EST
Temp
°C
App
Temp
°C
Dew
Point
°C
Rel
Hum
%
Delta-T
°C
Wind Press
QNH
hPa
Press
MSL
hPa
Rain since
9am
mm
Dir  Spd
km/h
Gust
km/h
Spd
kts
Gust
kts
23/11:30pm 12.8 9.5 4.5 57 3.8 S 11 11 6 6 1017.4 1017.3 0.0
23/11:00pm 12.3 9.1 5.0 61 3.4 SSE 11 13 6 7 1017.5 1017.4 0.0
23/10:30pm 12.7 9.5 4.9 59 3.6 SSE 11 13 6 7 1017.6 1017.5 0.0
23/10:00pm 12.9 10.4 4.8 58 3.8 SSE 7 11 4 6 1017.5 1017.4 0.0
23/09:30pm 13.0 10.5 4.7 57 3.9 SSE 7 9 4 5 1017.2 1017.1 0.0
23/09:00pm 13.9 11.4 4.5 53 4.4 SSE 7 9 4 5 1017.1 1016.9 0.0
23/08:30pm 14.5 11.6 4.5 51 4.7 SE 9 9 5 5 1017.0 1016.8 0.0
23/08:00pm 15.1 12.2 4.5 49 5.0 SE 9 9 5 5 1016.7 1016.5 0.0
23/07:30pm 16.6 13.3 4.3 44 5.8 SE 11 13 6 7 1016.6 1016.4 0.0
23/07:00pm 17.8 14.4 4.0 40 6.5 SE 11 13 6 7 1016.5 1016.3 0.0
23/06:30pm 20.4 16.5 3.6 33 8.1 SE 13 19 7 10 1016.5 1016.3 0.0
23/06:00pm 22.6 17.5 3.2 28 9.4 SSE 19 26 10 14 1016.4 1016.2 0.0
23/05:30pm 23.5 17.9 3.4 27 9.8 SSE 22 30 12 16 1016.0 1015.8 0.0
23/05:00pm 24.2 18.2 3.5 26 10.2 SSE 24 35 13 19 1016.0 1015.8 0.0
23/04:30pm 24.7 18.8 3.9 26 10.4 SSE 24 33 13 18 1015.9 1015.7 0.0
23/04:00pm 25.1 18.5 4.3 26 10.4 SSE 28 39 15 21 1015.9 1015.7 0.0
23/03:30pm 25.0 18.8 4.2 26 10.4 SSE 26 37 14 20 1015.9 1015.7 0.0
23/03:00pm 24.7 17.3 3.9 26 10.3 SSE 32 39 17 21 1015.9 1015.7 0.0
23/02:30pm 25.2 18.7 4.9 27 10.3 SSE 28 37 15 20 1016.0 1015.8 0.0

Other Formats:

Comma delimited format used in spreadsheet applications
http://www.bom.gov.au/fwo/IDQ60801/IDQ60801.94344.axf

JavaScript Object Notation format (JSON) in row-major order
http://www.bom.gov.au/fwo/IDQ60801/IDQ60801.94344.json